createdAt,value
2023-02-27T00:01:42.033Z,0.85
2023-02-27T00:04:09.243Z,0.60
2023-02-27T00:06:36.538Z,0.20
2023-02-27T00:09:04.491Z,0.17
2023-02-27T00:11:31.643Z,0.38
2023-02-27T00:13:58.754Z,0.40
2023-02-27T00:16:26.013Z,0.40
2023-02-27T00:18:53.156Z,0.38
2023-02-27T00:21:20.715Z,0.20
2023-02-27T00:23:47.874Z,0.40
2023-02-27T00:26:15.039Z,0.30
2023-02-27T00:28:42.208Z,0.30
2023-02-27T00:31:09.540Z,0.30
2023-02-27T00:33:36.684Z,0.45
2023-02-27T00:36:04.181Z,0.40
2023-02-27T00:38:31.480Z,0.63
2023-02-27T00:40:59.451Z,0.30
2023-02-27T00:43:26.906Z,0.28
2023-02-27T00:45:54.047Z,0.40
2023-02-27T00:48:21.129Z,0.20
2023-02-27T00:50:49.510Z,0.22
2023-02-27T00:53:16.674Z,0.30
2023-02-27T00:55:43.745Z,0.20
2023-02-27T00:58:10.972Z,0.35
2023-02-27T01:00:38.602Z,0.40
2023-02-27T01:03:05.764Z,0.30
2023-02-27T01:05:32.858Z,0.73
2023-02-27T01:08:00.150Z,0.20
2023-02-27T01:10:27.212Z,0.30
2023-02-27T01:12:54.375Z,0.45
2023-02-27T01:15:21.444Z,0.25
2023-02-27T01:17:49.536Z,0.85
2023-02-27T01:20:17.107Z,0.30
2023-02-27T01:22:44.336Z,0.30
2023-02-27T01:25:11.468Z,0.30
2023-02-27T01:27:38.628Z,0.20
2023-02-27T01:30:07.044Z,0.30
2023-02-27T01:32:34.269Z,0.45
2023-02-27T01:35:01.451Z,0.28
2023-02-27T01:37:28.770Z,0.22
2023-02-27T01:39:55.903Z,0.50
2023-02-27T01:42:26.891Z,0.20
2023-02-27T01:45:12.816Z,0.30
2023-02-27T01:47:44.018Z,0.25
2023-02-27T01:50:12.415Z,0.30
2023-02-27T01:52:41.340Z,0.20
2023-02-27T01:55:12.759Z,0.20
2023-02-27T01:57:41.684Z,0.32
2023-02-27T02:00:09.626Z,0.30
2023-02-27T02:02:44.558Z,0.20
2023-02-27T02:05:12.467Z,0.22
2023-02-27T02:07:42.118Z,0.50
2023-02-27T02:10:12.305Z,0.30
2023-02-27T02:12:40.307Z,0.40
2023-02-27T02:15:08.048Z,0.20
2023-02-27T02:17:53.596Z,0.20
2023-02-27T02:20:42.457Z,0.30
2023-02-27T02:23:48.551Z,0.40
2023-02-27T02:26:29.221Z,0.20
2023-02-27T02:29:34.414Z,0.40
2023-02-27T02:32:33.777Z,0.30
2023-02-27T02:35:19.515Z,0.30
2023-02-27T02:37:59.737Z,0.20
2023-02-27T02:40:45.289Z,0.30
2023-02-27T02:43:14.998Z,0.70
2023-02-27T02:45:49.403Z,0.30
2023-02-27T02:48:30.739Z,0.40
2023-02-27T02:51:04.782Z,0.50
2023-02-27T02:53:53.237Z,0.50
2023-02-27T02:56:49.408Z,0.20
2023-02-27T02:59:39.487Z,0.30
2023-02-27T03:02:10.934Z,0.22
2023-02-27T03:04:43.642Z,0.40
2023-02-27T03:07:16.285Z,0.50
2023-02-27T03:09:52.799Z,0.13
2023-02-27T03:12:23.821Z,0.17
2023-02-27T03:15:01.025Z,0.20
2023-02-27T03:17:45.047Z,0.40
2023-02-27T03:20:19.304Z,0.30
2023-02-27T03:22:50.846Z,0.30
2023-02-27T03:25:20.096Z,0.30
2023-02-27T03:28:01.575Z,0.10
2023-02-27T03:30:31.583Z,0.20
2023-02-27T03:33:04.740Z,0.10
2023-02-27T03:35:42.748Z,0.20
2023-02-27T03:38:40.878Z,0.40
2023-02-27T03:41:30.777Z,0.10
2023-02-27T03:44:36.516Z,0.20
2023-02-27T03:47:04.092Z,0.20
2023-02-27T03:49:31.346Z,0.20
2023-02-27T03:51:58.591Z,0.25
2023-02-27T03:54:31.965Z,0.30
2023-02-27T03:57:05.391Z,0.40
2023-02-27T03:59:33.903Z,0.20
2023-02-27T04:02:03.714Z,0.20
2023-02-27T04:04:32.070Z,0.22
2023-02-27T04:07:30.274Z,0.20
2023-02-27T04:10:15.902Z,0.65
2023-02-27T04:13:08.331Z,0.20
2023-02-27T04:16:03.415Z,0.15
2023-02-27T04:18:51.818Z,0.38
2023-02-27T04:21:21.569Z,0.25
2023-02-27T04:24:21.955Z,0.10
2023-02-27T04:27:15.655Z,0.10
2023-02-27T04:30:08.019Z,0.30
2023-02-27T04:32:53.478Z,0.20
2023-02-27T04:35:37.365Z,0.20
2023-02-27T04:38:16.983Z,0.25
2023-02-27T04:40:50.390Z,0.20
2023-02-27T04:43:19.947Z,0.20
2023-02-27T04:45:48.381Z,0.55
2023-02-27T04:48:33.366Z,0.20
2023-02-27T04:51:23.065Z,0.28
2023-02-27T04:54:01.919Z,0.30
2023-02-27T04:56:36.130Z,0.30
2023-02-27T04:59:39.335Z,0.63
2023-02-27T05:02:13.390Z,0.57
2023-02-27T05:04:44.070Z,0.25
2023-02-27T05:07:17.484Z,0.68
2023-02-27T05:10:09.170Z,0.32
2023-02-27T05:12:50.004Z,0.68
2023-02-27T05:15:40.911Z,0.40
2023-02-27T05:18:11.431Z,0.50
2023-02-27T05:21:01.679Z,0.28
2023-02-27T05:23:40.719Z,0.20
2023-02-27T05:26:28.256Z,0.22
2023-02-27T05:29:15.566Z,0.20
2023-02-27T05:32:03.596Z,0.10
2023-02-27T05:34:42.344Z,0.30
2023-02-27T05:37:19.993Z,0.10
2023-02-27T05:39:49.029Z,0.20
2023-02-27T05:42:27.975Z,0.20
2023-02-27T05:45:00.750Z,0.32
2023-02-27T05:47:32.494Z,0.40
2023-02-27T05:50:23.317Z,0.20
2023-02-27T05:52:53.345Z,0.30
2023-02-27T05:55:46.544Z,0.68
2023-02-27T05:58:55.025Z,0.20
2023-02-27T06:01:22.225Z,0.40
2023-02-27T06:03:49.192Z,1.10
2023-02-27T06:06:18.635Z,0.60
2023-02-27T06:11:13.316Z,0.50
2023-02-27T06:13:42.144Z,0.28
2023-02-27T06:16:14.207Z,0.30
2023-02-27T06:18:41.335Z,0.40
2023-02-27T06:21:08.329Z,0.40
2023-02-27T06:23:35.643Z,0.40
2023-02-27T06:26:02.696Z,0.40
2023-02-27T06:28:29.693Z,0.38
2023-02-27T06:30:57.519Z,0.57
2023-02-27T06:33:27.971Z,0.60
2023-02-27T06:35:54.922Z,0.45
2023-02-27T06:38:21.975Z,0.45
2023-02-27T06:40:50.662Z,0.30
2023-02-27T06:43:17.716Z,0.52
2023-02-27T06:45:44.716Z,0.60
2023-02-27T06:48:12.656Z,0.60
2023-02-27T06:50:39.790Z,0.47
2023-02-27T06:53:07.068Z,0.40
2023-02-27T06:55:34.786Z,0.25
2023-02-27T06:58:01.729Z,0.28
2023-02-27T07:00:29.491Z,0.45
2023-02-27T07:02:56.511Z,0.25
2023-02-27T07:05:23.561Z,0.38
2023-02-27T07:07:50.492Z,0.50
2023-02-27T07:10:17.670Z,0.20
2023-02-27T07:12:44.811Z,0.47
2023-02-27T07:15:12.180Z,0.30
2023-02-27T07:17:39.304Z,0.40
2023-02-27T07:20:09.060Z,0.63
2023-02-27T07:22:36.705Z,0.50
2023-02-27T07:25:04.526Z,0.63
2023-02-27T07:27:32.852Z,0.45
2023-02-27T07:30:01.195Z,0.50
2023-02-27T07:32:28.557Z,0.50
2023-02-27T07:34:55.559Z,0.45
2023-02-27T07:37:22.741Z,0.52
2023-02-27T07:39:50.626Z,0.45
2023-02-27T07:42:17.681Z,0.52
2023-02-27T07:44:44.770Z,0.82
2023-02-27T07:47:11.824Z,0.68
2023-02-27T07:49:38.831Z,0.50
2023-02-27T07:52:07.644Z,0.45
2023-02-27T07:54:35.711Z,0.60
2023-02-27T07:57:03.156Z,0.35
2023-02-27T07:59:30.205Z,0.70
2023-02-27T08:01:57.344Z,0.40
2023-02-27T08:04:24.376Z,0.30
2023-02-27T08:06:51.820Z,0.70
2023-02-27T08:09:18.899Z,0.65
2023-02-27T08:11:48.926Z,0.32
2023-02-27T08:14:16.620Z,0.65
2023-02-27T08:16:43.990Z,0.60
2023-02-27T08:19:13.486Z,0.50
2023-02-27T08:21:40.880Z,0.63
2023-02-27T08:24:07.817Z,0.68
2023-02-27T08:26:35.028Z,0.38
2023-02-27T08:29:02.214Z,0.47
2023-02-27T08:31:29.258Z,0.60
2023-02-27T08:34:07.806Z,0.45
2023-02-27T08:36:36.697Z,0.70
2023-02-27T08:39:04.420Z,0.40
2023-02-27T08:41:31.497Z,0.70
2023-02-27T08:43:58.674Z,0.40
2023-02-27T08:46:26.925Z,0.50
2023-02-27T08:48:54.816Z,0.30
2023-02-27T08:51:22.053Z,0.22
2023-02-27T08:53:49.201Z,0.30
2023-02-27T08:56:16.229Z,0.40
2023-02-27T08:58:43.208Z,0.40
2023-02-27T09:01:10.113Z,0.40
2023-02-27T09:03:37.352Z,0.20
2023-02-27T09:06:05.257Z,0.63
2023-02-27T09:08:32.385Z,0.20
2023-02-27T09:11:00.332Z,0.25
2023-02-27T09:13:27.589Z,0.30
2023-02-27T09:15:55.353Z,0.32
2023-02-27T09:18:23.167Z,0.22
2023-02-27T09:20:53.691Z,0.40
2023-02-27T09:23:20.866Z,0.50
2023-02-27T09:25:48.107Z,0.30
2023-02-27T09:28:15.868Z,0.30
2023-02-27T09:30:42.930Z,0.30
2023-02-27T09:33:09.975Z,0.40
2023-02-27T09:35:37.525Z,0.30
2023-02-27T09:38:05.471Z,0.50
2023-02-27T09:40:38.145Z,0.20
2023-02-27T09:43:15.825Z,0.40
2023-02-27T09:45:43.429Z,0.30
2023-02-27T09:48:48.730Z,0.47
2023-02-27T09:51:16.783Z,0.50
2023-02-27T09:53:47.741Z,0.30
2023-02-27T09:56:28.453Z,0.35
2023-02-27T09:59:01.515Z,0.30
2023-02-27T10:01:54.439Z,0.30
2023-02-27T10:04:52.614Z,0.40
2023-02-27T10:07:50.453Z,0.35
2023-02-27T10:10:31.674Z,0.45
2023-02-27T10:13:20.205Z,0.38
2023-02-27T10:15:53.155Z,0.40
2023-02-27T10:18:28.228Z,0.28
2023-02-27T10:21:07.126Z,1.25
2023-02-27T10:23:56.618Z,0.35
2023-02-27T10:26:30.013Z,0.30
2023-02-27T10:29:11.280Z,0.40
2023-02-27T10:31:39.194Z,0.50
2023-02-27T10:34:06.796Z,0.30
2023-02-27T10:36:34.941Z,0.20
2023-02-27T10:39:10.506Z,0.30
2023-02-27T10:41:39.927Z,0.30
2023-02-27T10:44:07.617Z,0.30
2023-02-27T10:46:38.682Z,0.35
2023-02-27T10:49:19.058Z,0.40
2023-02-27T10:51:47.838Z,0.28
2023-02-27T10:54:25.458Z,0.40
2023-02-27T10:56:58.320Z,0.30
2023-02-27T10:59:40.420Z,0.40
2023-02-27T11:02:26.706Z,0.93
2023-02-27T11:04:56.142Z,0.32
2023-02-27T11:07:36.061Z,0.50
2023-02-27T11:10:16.208Z,0.40
2023-02-27T11:13:05.276Z,0.55
2023-02-27T11:15:35.842Z,0.30
2023-02-27T11:18:28.784Z,0.40
2023-02-27T11:21:23.234Z,0.40
2023-02-27T11:23:55.003Z,0.20
2023-02-27T11:26:40.947Z,0.28
2023-02-27T11:29:15.115Z,0.50
2023-02-27T11:32:07.015Z,0.20
2023-02-27T11:34:41.858Z,0.30
2023-02-27T11:37:49.792Z,0.80
2023-02-27T11:40:19.672Z,0.40
2023-02-27T11:42:53.603Z,0.50
2023-02-27T11:46:17.651Z,0.40
2023-02-27T11:48:16.467Z,0.20
2023-02-27T11:51:08.644Z,0.55
2023-02-27T11:53:41.831Z,0.30
2023-02-27T11:56:42.293Z,0.98
2023-02-27T11:59:15.235Z,0.40
2023-02-27T12:01:55.149Z,0.68
2023-02-27T12:04:54.097Z,0.20
2023-02-27T12:07:44.824Z,0.28
2023-02-27T12:10:14.783Z,0.50
2023-02-27T12:13:04.136Z,0.22
2023-02-27T12:16:00.652Z,0.20
2023-02-27T12:18:34.481Z,0.20
2023-02-27T12:21:11.994Z,0.28
2023-02-27T12:23:54.035Z,0.50
2023-02-27T12:26:30.194Z,0.43
2023-02-27T12:29:19.270Z,0.40
2023-02-27T12:31:54.291Z,0.28
2023-02-27T12:34:34.479Z,0.50
2023-02-27T12:37:10.389Z,0.30
2023-02-27T12:39:40.153Z,0.35
2023-02-27T12:42:37.883Z,0.25
2023-02-27T12:45:29.251Z,1.67
2023-02-27T12:48:14.573Z,0.50
2023-02-27T12:51:07.751Z,0.30
2023-02-27T12:53:57.335Z,0.30
2023-02-27T12:56:34.342Z,0.70
2023-02-27T12:59:10.275Z,0.22
2023-02-27T13:02:18.445Z,0.40
2023-02-27T13:04:48.481Z,0.43
2023-02-27T13:07:44.517Z,0.38
2023-02-27T13:10:22.670Z,0.30
2023-02-27T13:13:01.795Z,0.20
2023-02-27T13:15:40.880Z,0.30
2023-02-27T13:18:30.863Z,0.40
2023-02-27T13:21:24.045Z,0.32
2023-02-27T13:24:02.556Z,0.70
2023-02-27T13:26:36.061Z,0.30
2023-02-27T13:29:04.396Z,0.38
2023-02-27T13:31:44.188Z,0.20
2023-02-27T13:34:20.115Z,0.40
2023-02-27T13:36:51.105Z,0.30
2023-02-27T13:39:56.563Z,0.13
2023-02-27T13:42:30.553Z,0.30
2023-02-27T13:44:58.488Z,0.35
2023-02-27T13:47:49.818Z,0.60
2023-02-27T13:50:21.311Z,0.50
2023-02-27T13:52:48.475Z,0.30
2023-02-27T13:55:31.306Z,0.30
2023-02-27T13:58:00.883Z,0.20
2023-02-27T14:00:32.598Z,0.30
2023-02-27T14:03:18.828Z,0.30
2023-02-27T14:05:48.049Z,0.30
2023-02-27T14:11:11.220Z,0.45
2023-02-27T14:14:02.859Z,0.45
2023-02-27T14:16:41.791Z,0.40
2023-02-27T14:19:23.697Z,0.40
2023-02-27T14:21:58.298Z,0.50
2023-02-27T14:24:28.315Z,0.40
2023-02-27T14:26:55.853Z,0.30
2023-02-27T14:29:31.147Z,0.30
2023-02-27T14:32:01.615Z,0.22
2023-02-27T14:34:29.225Z,1.25
2023-02-27T14:37:00.722Z,0.30
2023-02-27T14:39:34.563Z,0.30
2023-02-27T14:42:10.039Z,0.50
2023-02-27T14:44:44.070Z,0.30
2023-02-27T14:47:29.141Z,0.45
2023-02-27T14:49:56.344Z,0.20
2023-02-27T14:52:26.155Z,0.45
2023-02-27T14:54:53.698Z,0.50
2023-02-27T14:57:24.171Z,0.32
2023-02-27T14:59:53.484Z,0.45
2023-02-27T15:05:16.719Z,0.40
2023-02-27T15:07:47.472Z,0.50
2023-02-27T15:10:25.055Z,0.73
2023-02-27T15:12:52.553Z,0.38
2023-02-27T15:15:21.284Z,0.28
2023-02-27T15:17:52.901Z,0.40
2023-02-27T15:20:32.296Z,0.50
2023-02-27T15:23:21.469Z,0.30
2023-02-27T15:25:48.932Z,0.30
2023-02-27T15:28:24.062Z,0.20
2023-02-27T15:30:52.762Z,0.40
2023-02-27T15:33:28.903Z,0.30
2023-02-27T15:35:56.716Z,0.17
2023-02-27T15:38:23.857Z,0.40
2023-02-27T15:40:51.660Z,0.40
2023-02-27T15:43:19.142Z,0.30
2023-02-27T15:45:48.756Z,0.60
2023-02-27T15:48:17.199Z,0.50
2023-02-27T15:50:52.286Z,0.85
2023-02-27T15:53:22.233Z,0.32
2023-02-27T15:56:13.169Z,0.40
2023-02-27T15:59:01.140Z,0.40
2023-02-27T16:01:32.430Z,0.70
2023-02-27T16:04:03.444Z,0.38
2023-02-27T16:06:41.422Z,0.40
2023-02-27T16:09:35.990Z,0.50
2023-02-27T16:12:22.733Z,0.60
2023-02-27T16:14:52.800Z,0.55
2023-02-27T16:17:33.184Z,0.38
2023-02-27T16:20:21.557Z,0.50
2023-02-27T16:23:03.743Z,0.30
2023-02-27T16:25:30.924Z,0.52
2023-02-27T16:27:58.107Z,0.40
2023-02-27T16:30:25.238Z,0.43
2023-02-27T16:33:00.627Z,0.52
2023-02-27T16:38:01.346Z,0.52
2023-02-27T16:40:29.816Z,0.90
2023-02-27T16:42:57.620Z,0.32
2023-02-27T16:45:30.706Z,0.70
2023-02-27T16:48:00.026Z,0.30
2023-02-27T16:50:29.679Z,0.50
2023-02-27T16:52:57.696Z,0.43
2023-02-27T16:55:26.049Z,0.65
2023-02-27T16:57:53.300Z,0.60
2023-02-27T17:00:22.694Z,0.70
2023-02-27T17:02:51.234Z,0.40
2023-02-27T17:05:19.053Z,0.88
2023-02-27T17:07:46.473Z,0.90
2023-02-27T17:10:18.664Z,0.93
2023-02-27T17:12:47.936Z,0.40
2023-02-27T17:17:44.106Z,0.73
2023-02-27T17:20:13.129Z,0.35
2023-02-27T17:22:43.070Z,0.50
2023-02-27T17:25:10.989Z,0.40
2023-02-27T17:27:38.226Z,1.30
2023-02-27T17:30:06.851Z,0.85
2023-02-27T17:32:35.034Z,0.60
2023-02-27T17:35:02.170Z,0.88
2023-02-27T17:37:29.491Z,0.88
2023-02-27T17:39:56.831Z,0.80
2023-02-27T17:42:25.928Z,0.70
2023-02-27T17:44:53.126Z,0.60
2023-02-27T17:47:20.584Z,0.90
2023-02-27T17:49:50.580Z,0.88
2023-02-27T17:52:17.817Z,1.20
2023-02-27T17:54:45.029Z,0.80
2023-02-27T17:57:13.369Z,0.50
2023-02-27T17:59:41.001Z,1.08
2023-02-27T18:02:11.568Z,1.02
2023-02-27T18:04:38.705Z,1.13
2023-02-27T18:07:06.332Z,1.20
2023-02-27T18:09:33.389Z,1.60
2023-02-27T18:12:00.361Z,3.38
2023-02-27T18:14:27.589Z,1.73
2023-02-27T18:16:54.665Z,1.20
2023-02-27T18:19:24.362Z,1.10
2023-02-27T18:21:51.716Z,1.27
2023-02-27T18:24:18.842Z,1.50
2023-02-27T18:26:46.019Z,0.90
2023-02-27T18:29:14.035Z,1.17
2023-02-27T18:31:45.862Z,1.13
2023-02-27T18:34:13.505Z,1.10
2023-02-27T18:36:40.592Z,1.02
2023-02-27T18:39:08.778Z,1.42
2023-02-27T18:41:36.851Z,1.73
2023-02-27T18:44:05.127Z,2.05
2023-02-27T18:46:33.526Z,0.60
2023-02-27T18:49:08.204Z,1.20
2023-02-27T18:51:35.459Z,2.28
2023-02-27T18:54:04.486Z,2.33
2023-02-27T18:56:32.974Z,1.90
2023-02-27T18:59:05.232Z,3.35
2023-02-27T19:01:35.685Z,2.10
2023-02-27T19:04:04.904Z,2.17
2023-02-27T19:06:40.941Z,1.35
2023-02-27T19:09:14.555Z,2.30
2023-02-27T19:11:41.841Z,2.95
2023-02-27T19:14:12.304Z,1.70
2023-02-27T19:16:40.249Z,1.20
2023-02-27T19:19:10.015Z,1.40
2023-02-27T19:21:37.166Z,1.40
2023-02-27T19:24:04.479Z,1.20
2023-02-27T19:26:34.229Z,1.92
2023-02-27T19:29:02.183Z,2.90
2023-02-27T19:31:29.444Z,1.77
2023-02-27T19:33:56.576Z,2.30
2023-02-27T19:36:25.564Z,3.10
2023-02-27T19:38:52.655Z,2.50
2023-02-27T19:41:20.442Z,2.20
2023-02-27T19:43:48.532Z,3.00
2023-02-27T19:46:19.256Z,3.35
2023-02-27T19:48:46.880Z,3.22
2023-02-27T19:51:14.994Z,6.03
2023-02-27T19:53:51.260Z,5.25
2023-02-27T19:56:21.371Z,4.50
2023-02-27T19:58:49.157Z,3.60
2023-02-27T20:01:28.315Z,4.60
2023-02-27T20:03:56.352Z,4.30
2023-02-27T20:06:26.215Z,3.15
2023-02-27T20:08:54.264Z,2.83
2023-02-27T20:11:22.001Z,2.40
2023-02-27T20:13:51.582Z,2.70
2023-02-27T20:16:22.322Z,3.80
2023-02-27T20:18:50.151Z,3.30
2023-02-27T20:21:20.283Z,3.63
2023-02-27T20:23:48.786Z,2.80
2023-02-27T20:26:36.642Z,2.00
2023-02-27T20:29:07.928Z,2.00
2023-02-27T20:31:42.879Z,2.22
2023-02-27T20:34:22.444Z,2.05
2023-02-27T20:36:51.063Z,1.40
2023-02-27T20:39:19.076Z,1.50
2023-02-27T20:41:46.901Z,1.35
2023-02-27T20:44:14.204Z,0.80
2023-02-27T20:46:45.189Z,1.35
2023-02-27T20:49:17.243Z,1.25
2023-02-27T20:51:47.173Z,1.92
2023-02-27T20:54:20.269Z,1.17
2023-02-27T20:56:56.261Z,0.82
2023-02-27T20:59:26.593Z,0.80
2023-02-27T21:01:58.856Z,0.57
2023-02-27T21:04:54.639Z,0.45
2023-02-27T21:07:22.581Z,0.50
2023-02-27T21:09:50.815Z,0.40
2023-02-27T21:12:20.075Z,0.80
2023-02-27T21:17:16.298Z,0.47
2023-02-27T21:19:43.542Z,0.70
2023-02-27T21:22:12.008Z,0.73
2023-02-27T21:24:41.910Z,0.50
2023-02-27T21:27:12.009Z,0.70
2023-02-27T21:29:42.977Z,0.60
2023-02-27T21:36:07.096Z,0.85
2023-02-27T21:39:01.114Z,0.70
2023-02-27T21:44:07.234Z,0.82
2023-02-27T21:46:37.761Z,0.52
2023-02-27T21:49:45.604Z,0.63
2023-02-27T21:52:19.688Z,0.63
2023-02-27T21:54:50.138Z,1.15
2023-02-27T21:57:19.151Z,0.30
2023-02-27T21:59:46.178Z,0.40
2023-02-27T22:02:13.892Z,0.82
2023-02-27T22:04:41.018Z,0.60
2023-02-27T22:07:10.458Z,0.80
2023-02-27T22:09:38.590Z,0.85
2023-02-27T22:12:05.942Z,0.50
2023-02-27T22:14:33.137Z,0.80
2023-02-27T22:17:00.299Z,0.60
2023-02-27T22:19:27.433Z,0.70
2023-02-27T22:21:54.763Z,0.70
2023-02-27T22:24:21.902Z,0.50
2023-02-27T22:26:50.398Z,0.50
2023-02-27T22:29:17.700Z,0.50
2023-02-27T22:31:45.614Z,0.35
2023-02-27T22:34:18.885Z,0.60
2023-02-27T22:36:48.745Z,0.57
2023-02-27T22:39:15.893Z,0.30
2023-02-27T22:41:43.256Z,0.32
2023-02-27T22:44:13.418Z,0.40
2023-02-27T22:46:47.241Z,0.30
2023-02-27T22:49:23.544Z,0.50
2023-02-27T22:51:52.324Z,0.30
2023-02-27T22:54:22.508Z,0.28
2023-02-27T22:56:52.167Z,0.20
2023-02-27T22:59:19.866Z,0.20
2023-02-27T23:01:48.321Z,0.30
2023-02-27T23:04:17.224Z,0.50
2023-02-27T23:06:45.400Z,0.40
2023-02-27T23:09:24.305Z,0.35
2023-02-27T23:11:51.772Z,0.45
2023-02-27T23:14:19.901Z,0.30
2023-02-27T23:16:47.762Z,0.50
2023-02-27T23:19:17.994Z,0.30
2023-02-27T23:21:45.292Z,0.30
2023-02-27T23:24:15.044Z,0.50
2023-02-27T23:26:45.085Z,0.30
2023-02-27T23:29:12.574Z,0.60
2023-02-27T23:31:40.270Z,0.70
2023-02-27T23:34:07.525Z,0.50
2023-02-27T23:36:36.260Z,0.70
2023-02-27T23:39:04.893Z,0.50
2023-02-27T23:41:33.267Z,0.38
2023-02-27T23:44:01.770Z,0.60
2023-02-27T23:46:30.818Z,0.40
2023-02-27T23:48:59.513Z,0.40
2023-02-27T23:51:29.090Z,0.40
2023-02-27T23:53:57.876Z,0.60
2023-02-27T23:56:29.118Z,0.60
2023-02-27T23:58:59.210Z,0.43
